createdAt,value
2018-12-13T00:02:03.992Z,3.47
2018-12-13T00:04:33.029Z,4.33
2018-12-13T00:07:06.575Z,3.47
2018-12-13T00:09:35.630Z,3.33
2018-12-13T00:12:11.235Z,4.17
2018-12-13T00:14:40.563Z,3.63
2018-12-13T00:17:13.052Z,4.00
2018-12-13T00:19:42.004Z,3.93
2018-12-13T00:22:15.215Z,4.10
2018-12-13T00:24:44.228Z,3.53
2018-12-13T00:27:21.103Z,4.60
2018-12-13T00:29:50.381Z,3.83
2018-12-13T00:32:21.186Z,4.93
2018-12-13T00:34:50.257Z,4.47
2018-12-13T00:37:22.951Z,4.30
2018-12-13T00:39:51.975Z,3.93
2018-12-13T00:42:28.306Z,4.23
2018-12-13T00:44:58.182Z,3.87
2018-12-13T00:47:27.763Z,4.77
2018-12-13T00:49:56.688Z,4.07
2018-12-13T00:52:34.171Z,4.87
2018-12-13T00:55:03.390Z,4.10
2018-12-13T00:57:33.014Z,4.33
2018-12-13T01:00:01.951Z,4.53
2018-12-13T01:02:35.136Z,4.67
2018-12-13T01:05:04.346Z,4.57
2018-12-13T01:07:39.263Z,5.00
2018-12-13T01:10:08.673Z,4.50
2018-12-13T01:12:41.311Z,4.37
2018-12-13T01:15:10.369Z,4.70
2018-12-13T01:17:43.641Z,4.57
2018-12-13T01:20:12.706Z,4.90
2018-12-13T01:22:46.768Z,4.73
2018-12-13T01:25:16.034Z,5.10
2018-12-13T01:27:53.889Z,4.43
2018-12-13T01:30:22.942Z,4.90
2018-12-13T01:32:52.480Z,4.73
2018-12-13T01:35:21.520Z,5.20
2018-12-13T01:37:55.368Z,5.03
2018-12-13T01:40:24.740Z,4.03
2018-12-13T01:42:58.784Z,4.97
2018-12-13T01:45:28.553Z,5.17
2018-12-13T01:48:02.612Z,4.67
2018-12-13T01:50:31.875Z,5.73
2018-12-13T01:53:05.223Z,4.30
2018-12-13T01:55:34.268Z,4.33
2018-12-13T01:58:10.511Z,4.43
2018-12-13T02:00:39.433Z,4.10
2018-12-13T02:03:14.867Z,4.53
2018-12-13T02:05:43.789Z,4.47
2018-12-13T02:08:16.642Z,5.17
2018-12-13T02:10:45.931Z,4.37
2018-12-13T02:13:18.026Z,4.33
2018-12-13T02:15:46.991Z,5.17
2018-12-13T02:18:21.243Z,5.07
2018-12-13T02:20:51.125Z,4.07
2018-12-13T02:23:23.708Z,4.70
2018-12-13T02:25:52.886Z,4.93
2018-12-13T02:28:26.094Z,5.17
2018-12-13T02:30:55.282Z,4.30
2018-12-13T02:33:31.274Z,4.90
2018-12-13T02:36:00.265Z,4.60
2018-12-13T02:38:30.988Z,4.93
2018-12-13T02:40:59.882Z,4.73
2018-12-13T02:43:33.428Z,4.70
2018-12-13T02:46:02.922Z,4.50
2018-12-13T02:48:36.794Z,3.87
2018-12-13T02:51:06.180Z,4.73
2018-12-13T02:53:39.118Z,4.73
2018-12-13T02:56:08.457Z,5.87
2018-12-13T02:58:41.739Z,4.23
2018-12-13T03:01:10.941Z,4.43
2018-12-13T03:03:47.540Z,5.17
2018-12-13T03:06:16.869Z,5.20
2018-12-13T03:08:47.946Z,5.37
2018-12-13T03:11:16.916Z,6.63
2018-12-13T03:13:50.995Z,5.30
2018-12-13T03:16:20.023Z,4.93
2018-12-13T03:18:48.936Z,5.13
2018-12-13T03:21:18.526Z,5.20
2018-12-13T03:23:47.427Z,4.77
2018-12-13T03:26:16.367Z,5.93
2018-12-13T03:28:45.781Z,5.43
2018-12-13T03:31:14.801Z,6.17
2018-12-13T03:33:43.895Z,5.43
2018-12-13T03:36:12.876Z,5.53
2018-12-13T03:38:41.891Z,5.10
2018-12-13T03:41:12.875Z,4.70
2018-12-13T03:43:41.769Z,5.10
2018-12-13T03:48:50.470Z,5.33
2018-12-13T03:51:19.398Z,5.37
2018-12-13T03:53:48.944Z,6.10
2018-12-13T03:56:21.315Z,5.27
2018-12-13T03:58:50.263Z,4.83
2018-12-13T04:01:22.490Z,5.03
2018-12-13T04:03:51.542Z,5.13
2018-12-13T04:06:28.234Z,5.67
2018-12-13T04:08:57.454Z,5.10
2018-12-13T04:11:28.081Z,5.17
2018-12-13T04:13:56.982Z,4.40
2018-12-13T04:16:30.674Z,5.50
2018-12-13T04:18:59.739Z,5.00
2018-12-13T04:21:35.911Z,5.40
2018-12-13T04:24:05.235Z,5.43
2018-12-13T04:26:34.973Z,5.17
2018-12-13T04:29:04.064Z,5.50
2018-12-13T04:31:40.102Z,5.10
2018-12-13T04:34:09.011Z,4.87
2018-12-13T04:36:41.331Z,5.30
2018-12-13T04:39:10.259Z,4.50
2018-12-13T04:41:42.527Z,4.93
2018-12-13T04:44:11.721Z,4.77
2018-12-13T04:46:44.903Z,4.10
2018-12-13T04:49:13.884Z,4.80
2018-12-13T04:51:50.501Z,4.70
2018-12-13T04:54:19.550Z,4.13
2018-12-13T04:56:51.639Z,4.53
2018-12-13T04:59:20.616Z,4.17
2018-12-13T05:01:57.626Z,4.63
2018-12-13T05:04:26.562Z,4.53
2018-12-13T05:06:56.615Z,4.33
2018-12-13T05:09:25.543Z,4.73
2018-12-13T05:11:59.949Z,4.20
2018-12-13T05:14:28.826Z,4.37
2018-12-13T05:17:02.539Z,4.90
2018-12-13T05:19:32.000Z,4.70
2018-12-13T05:22:06.159Z,5.17
2018-12-13T05:24:35.066Z,4.97
2018-12-13T05:27:10.424Z,5.73
2018-12-13T05:29:39.331Z,5.83
2018-12-13T05:32:13.173Z,5.47
2018-12-13T05:34:44.402Z,5.90
2018-12-13T05:37:16.566Z,5.43
2018-12-13T05:39:45.567Z,5.80
2018-12-13T05:42:22.115Z,5.87
2018-12-13T05:44:51.043Z,5.53
2018-12-13T05:47:20.553Z,4.70
2018-12-13T05:49:50.841Z,5.40
2018-12-13T05:52:23.320Z,4.77
2018-12-13T05:54:52.467Z,4.47
2018-12-13T05:57:25.343Z,4.10
2018-12-13T05:59:55.594Z,4.40
2018-12-13T06:02:28.140Z,4.83
2018-12-13T06:04:57.083Z,4.73
2018-12-13T06:07:30.310Z,5.23
2018-12-13T06:09:59.416Z,5.50
2018-12-13T06:12:35.703Z,5.03
2018-12-13T06:15:06.041Z,5.20
2018-12-13T06:17:35.939Z,4.60
2018-12-13T06:20:05.726Z,4.70
2018-12-13T06:22:38.617Z,4.77
2018-12-13T06:25:11.360Z,4.90
2018-12-13T06:27:41.676Z,4.80
2018-12-13T06:30:11.079Z,4.50
2018-12-13T06:32:48.713Z,5.30
2018-12-13T06:35:17.717Z,5.13
2018-12-13T06:37:46.754Z,4.97
2018-12-13T06:40:15.771Z,5.37
2018-12-13T06:42:52.763Z,5.10
2018-12-13T06:45:21.763Z,4.37
2018-12-13T06:47:53.856Z,4.57
2018-12-13T06:50:23.100Z,4.90
2018-12-13T06:52:59.469Z,5.33
2018-12-13T06:55:28.656Z,4.90
2018-12-13T06:57:57.630Z,5.43
2018-12-13T07:00:26.676Z,4.70
2018-12-13T07:03:02.711Z,5.03
2018-12-13T07:05:31.580Z,4.47
2018-12-13T07:08:07.751Z,4.70
2018-12-13T07:13:08.030Z,4.30
2018-12-13T07:15:37.243Z,4.83
2018-12-13T07:18:14.020Z,5.37
2018-12-13T07:20:43.556Z,4.73
2018-12-13T07:23:12.547Z,5.60
2018-12-13T07:25:42.380Z,5.13
2018-12-13T07:28:20.110Z,5.07
2018-12-13T07:30:49.042Z,4.70
2018-12-13T07:33:17.972Z,5.47
2018-12-13T07:35:47.426Z,5.10
2018-12-13T07:38:20.255Z,5.10
2018-12-13T07:40:49.220Z,5.97
2018-12-13T07:43:26.442Z,5.30
2018-12-13T07:45:55.938Z,5.80
2018-12-13T07:48:24.949Z,5.13
2018-12-13T07:50:54.233Z,4.77
2018-12-13T07:53:27.084Z,4.93
2018-12-13T07:58:35.344Z,5.33
2018-12-13T08:01:04.393Z,5.47
2018-12-13T08:03:33.415Z,5.17
2018-12-13T08:06:02.690Z,4.80
2018-12-13T08:08:35.530Z,5.33
2018-12-13T08:11:04.602Z,5.30
2018-12-13T08:13:37.440Z,5.03
2018-12-13T08:16:07.080Z,5.33
2018-12-13T08:18:43.351Z,5.37
2018-12-13T08:21:12.537Z,5.60
2018-12-13T08:26:15.374Z,6.90
2018-12-13T08:28:46.082Z,5.40
2018-12-13T08:31:15.151Z,5.30
2018-12-13T08:33:49.267Z,5.40
2018-12-13T08:36:18.577Z,6.00
2018-12-13T08:38:57.179Z,4.93
2018-12-13T08:41:26.198Z,5.10
2018-12-13T08:43:55.507Z,4.60
2018-12-13T08:46:25.029Z,4.70
2018-12-13T08:48:58.100Z,4.40
2018-12-13T08:51:27.506Z,5.17
2018-12-13T08:54:03.735Z,4.77
2018-12-13T08:56:32.879Z,3.50
2018-12-13T08:59:05.410Z,4.03
2018-12-13T09:01:34.569Z,3.13
2018-12-13T09:04:22.089Z,3.17
2018-12-13T09:06:51.057Z,3.93
2018-12-13T09:09:20.118Z,3.03
2018-12-13T09:11:49.436Z,2.87
2018-12-13T09:14:18.479Z,3.50
2018-12-13T09:16:47.641Z,3.93
2018-12-13T09:19:17.211Z,3.90
2018-12-13T09:21:46.361Z,3.77
2018-12-13T09:24:19.154Z,3.50
2018-12-13T09:26:48.659Z,3.70
2018-12-13T09:29:21.274Z,3.33
2018-12-13T09:31:50.642Z,3.83
2018-12-13T09:34:23.984Z,3.50
2018-12-13T09:36:52.975Z,3.27
2018-12-13T09:39:25.630Z,3.37
2018-12-13T09:41:54.942Z,3.67
2018-12-13T09:44:27.720Z,4.13
2018-12-13T09:46:56.726Z,3.83
2018-12-13T09:49:30.831Z,3.93
2018-12-13T09:51:59.786Z,3.90
2018-12-13T09:54:32.500Z,3.50
2018-12-13T09:57:02.065Z,4.17
2018-12-13T09:59:39.411Z,3.97
2018-12-13T10:02:08.907Z,5.10
2018-12-13T10:04:37.983Z,4.93
2018-12-13T10:07:06.967Z,4.27
2018-12-13T10:09:41.118Z,4.33
2018-12-13T10:12:10.158Z,4.93
2018-12-13T10:14:46.511Z,4.97
2018-12-13T10:17:15.482Z,4.53
2018-12-13T10:19:45.571Z,4.50
2018-12-13T10:22:15.109Z,4.83
2018-12-13T10:24:48.384Z,5.10
2018-12-13T10:27:18.633Z,5.63
2018-12-13T10:29:55.573Z,5.40
2018-12-13T10:32:24.731Z,5.40
2018-12-13T10:34:55.234Z,5.20
2018-12-13T10:37:24.900Z,5.53
2018-12-13T10:39:57.960Z,5.23
2018-12-13T10:42:27.007Z,5.30
2018-12-13T10:45:00.975Z,5.83
2018-12-13T10:47:29.967Z,5.37
2018-12-13T10:50:08.630Z,5.13
2018-12-13T10:52:37.851Z,5.90
2018-12-13T10:55:07.578Z,6.57
2018-12-13T10:57:37.518Z,6.20
2018-12-13T11:00:17.573Z,5.87
2018-12-13T11:02:59.917Z,6.27
2018-12-13T11:05:29.690Z,6.17
2018-12-13T11:07:58.690Z,5.60
2018-12-13T11:10:27.726Z,5.60
2018-12-13T11:12:57.984Z,6.07
2018-12-13T11:15:27.047Z,6.13
2018-12-13T11:17:56.254Z,7.37
2018-12-13T11:20:25.541Z,6.63
2018-12-13T11:22:54.581Z,6.17
2018-12-13T11:25:24.051Z,6.43
2018-12-13T11:28:12.940Z,6.57
2018-12-13T11:30:41.964Z,5.93
2018-12-13T11:33:11.301Z,7.20
2018-12-13T11:35:40.364Z,6.20
2018-12-13T11:38:09.925Z,5.97
2018-12-13T11:40:39.192Z,5.80
2018-12-13T11:43:08.399Z,7.10
2018-12-13T11:45:37.843Z,7.37
2018-12-13T11:48:07.952Z,5.53
2018-12-13T11:50:36.974Z,6.47
2018-12-13T11:53:08.678Z,6.90
2018-12-13T11:55:42.112Z,6.07
2018-12-13T11:58:15.929Z,6.00
2018-12-13T12:00:45.757Z,7.13
2018-12-13T12:03:15.794Z,8.60
2018-12-13T12:05:46.805Z,8.07
2018-12-13T12:08:16.112Z,7.43
2018-12-13T12:10:46.467Z,8.37
2018-12-13T12:13:15.522Z,12.60
2018-12-13T12:15:51.904Z,7.50
2018-12-13T12:18:20.994Z,7.63
2018-12-13T12:20:57.168Z,6.50
2018-12-13T12:23:27.066Z,5.93
2018-12-13T12:25:56.521Z,6.90
2018-12-13T12:28:25.646Z,6.63
2018-12-13T12:30:59.224Z,6.43
2018-12-13T12:33:42.515Z,6.70
2018-12-13T12:36:12.630Z,5.57
2018-12-13T12:38:42.106Z,5.40
2018-12-13T12:41:11.336Z,6.87
2018-12-13T12:43:40.853Z,6.30
2018-12-13T12:46:10.952Z,6.20
2018-12-13T12:48:40.191Z,6.40
2018-12-13T12:51:13.166Z,5.17
2018-12-13T12:53:42.647Z,4.83
2018-12-13T12:56:13.257Z,5.40
2018-12-13T12:58:42.318Z,5.33
2018-12-13T13:01:15.550Z,4.40
2018-12-13T13:03:50.035Z,5.13
2018-12-13T13:06:19.546Z,5.00
2018-12-13T13:08:49.205Z,4.87
2018-12-13T13:11:23.431Z,5.67
2018-12-13T13:14:05.214Z,5.00
2018-12-13T13:16:34.986Z,5.67
2018-12-13T13:19:05.499Z,5.93
2018-12-13T13:21:34.609Z,6.00
2018-12-13T13:24:04.091Z,6.10
2018-12-13T13:26:33.256Z,6.23
2018-12-13T13:29:02.274Z,6.50
2018-12-13T13:31:31.611Z,6.67
2018-12-13T13:34:00.853Z,5.90
2018-12-13T13:36:33.787Z,6.73
2018-12-13T13:39:03.834Z,7.27
2018-12-13T13:41:35.990Z,7.13
2018-12-13T13:44:05.218Z,6.57
2018-12-13T13:46:38.772Z,6.40
2018-12-13T13:49:08.032Z,7.63
2018-12-13T13:51:41.523Z,5.93
2018-12-13T13:54:12.051Z,5.93
2018-12-13T13:56:43.984Z,6.63
2018-12-13T13:59:22.899Z,6.23
2018-12-13T14:01:56.401Z,6.27
2018-12-13T14:04:27.547Z,6.57
2018-12-13T14:06:58.172Z,5.73
2018-12-13T14:09:28.096Z,6.47
2018-12-13T14:11:59.856Z,6.60
2018-12-13T14:14:39.124Z,5.87
2018-12-13T14:17:10.977Z,6.00
2018-12-13T14:19:40.951Z,6.60
2018-12-13T14:22:11.273Z,6.20
2018-12-13T14:24:43.348Z,6.33
2018-12-13T14:27:16.844Z,6.40
2018-12-13T14:56:32.650Z,6.80
2018-12-13T14:59:02.171Z,6.77
2018-12-13T15:01:31.569Z,7.87
2018-12-13T15:10:44.532Z,7.67
2018-12-13T15:13:14.703Z,7.83
2018-12-13T15:33:06.673Z,7.47
2018-12-13T15:35:42.304Z,7.57
2018-12-13T15:38:11.635Z,6.37
2018-12-13T15:40:41.172Z,7.07
2018-12-13T15:43:11.253Z,6.37
2018-12-13T15:45:43.652Z,8.13
2018-12-13T15:48:13.179Z,8.00
2018-12-13T15:50:47.107Z,7.20
2018-12-13T15:53:16.347Z,7.97
2018-12-13T15:55:50.351Z,8.07
2018-12-13T15:58:19.530Z,7.30
2018-12-13T16:00:53.114Z,7.00
2018-12-13T16:03:23.567Z,7.93
2018-12-13T16:05:57.682Z,6.63
2018-12-13T16:08:27.761Z,7.83
2018-12-13T16:10:59.855Z,7.80
2018-12-13T16:13:29.844Z,7.97
2018-12-13T16:16:03.839Z,6.93
2018-12-13T16:18:36.469Z,7.40
2018-12-13T16:21:05.832Z,7.83
2018-12-13T16:23:37.085Z,7.10
2018-12-13T16:26:08.715Z,7.47
2018-12-13T16:28:38.452Z,6.97
2018-12-13T16:31:16.121Z,6.93
2018-12-13T16:34:12.320Z,7.63
2018-12-13T16:36:55.762Z,7.37
2018-12-13T16:39:43.571Z,7.43
2018-12-13T16:42:41.545Z,6.80
2018-12-13T16:45:26.616Z,6.67
2018-12-13T16:47:58.065Z,6.80
2018-12-13T16:50:27.960Z,7.73
2018-12-13T16:56:28.178Z,6.33
2018-12-13T16:59:01.644Z,6.27
2018-12-13T17:03:16.763Z,7.20
2018-12-13T17:05:48.504Z,8.23
2018-12-13T17:08:18.833Z,6.30
2018-12-13T17:10:49.086Z,7.40
2018-12-13T17:16:11.573Z,7.23
2018-12-13T17:18:40.650Z,5.73
2018-12-13T17:21:10.150Z,6.80
2018-12-13T17:23:43.622Z,6.50
2018-12-13T17:26:13.302Z,5.87
2018-12-13T17:28:45.578Z,6.03
2018-12-13T17:31:15.173Z,7.00
2018-12-13T17:33:45.401Z,6.43
2018-12-13T17:36:14.948Z,6.87
2018-12-13T17:38:49.557Z,6.27
2018-12-13T17:41:19.044Z,6.30
2018-12-13T17:43:50.358Z,6.73
2018-12-13T17:46:20.911Z,5.70
2018-12-13T17:48:53.936Z,6.17
2018-12-13T17:51:23.814Z,6.27
2018-12-13T17:53:54.608Z,7.13
2018-12-13T17:56:24.051Z,6.67
2018-12-13T17:59:01.378Z,6.67
2018-12-13T18:01:30.747Z,6.20
2018-12-13T18:04:03.224Z,6.73
2018-12-13T18:06:32.511Z,7.33
2018-12-13T18:09:07.596Z,6.80
2018-12-13T18:11:37.687Z,6.23
2018-12-13T18:14:07.329Z,7.53
2018-12-13T18:16:43.246Z,6.53
2018-12-13T18:19:11.569Z,7.30
2018-12-13T18:21:41.871Z,6.33
2018-12-13T18:30:59.813Z,5.80
2018-12-13T18:33:29.513Z,7.37
2018-12-13T18:35:59.311Z,6.43
2018-12-13T18:41:41.038Z,6.43
2018-12-13T18:44:11.265Z,6.43
2018-12-13T18:46:40.885Z,7.13
2018-12-13T18:49:10.584Z,6.53
2018-12-13T18:51:45.612Z,7.57
2018-12-13T18:54:15.323Z,6.27
2018-12-13T18:56:44.809Z,7.50
2018-12-13T18:59:15.004Z,5.93
2018-12-13T19:01:46.136Z,7.67
2018-12-13T19:04:15.850Z,6.17
2018-12-13T19:06:51.839Z,7.17
2018-12-13T19:09:21.525Z,5.80
2018-12-13T19:11:52.834Z,5.93
2018-12-13T19:14:22.952Z,4.80
2018-12-13T19:16:53.273Z,5.43
2018-12-13T19:19:22.767Z,6.13
2018-12-13T19:21:52.859Z,6.23
2018-12-13T19:24:22.397Z,5.70
2018-12-13T19:26:52.181Z,6.23
2018-12-13T19:29:21.989Z,5.63
2018-12-13T19:31:58.534Z,5.27
2018-12-13T19:34:28.748Z,5.73
2018-12-13T19:36:59.337Z,4.93
2018-12-13T19:39:29.925Z,5.67
2018-12-13T19:42:00.694Z,5.20
2018-12-13T19:44:32.947Z,5.37
2018-12-13T19:47:03.324Z,5.70
2018-12-13T19:49:33.809Z,4.50
2018-12-13T19:52:09.311Z,5.00
2018-12-13T19:54:42.343Z,5.30
2018-12-13T19:57:16.009Z,4.87
2018-12-13T19:59:47.650Z,5.53
2018-12-13T20:02:17.322Z,5.53
2018-12-13T20:04:47.732Z,4.77
2018-12-13T20:07:17.136Z,5.80
2018-12-13T20:09:46.580Z,4.80
2018-12-13T20:12:19.175Z,4.63
2018-12-13T20:14:48.557Z,4.77
2018-12-13T20:17:18.460Z,5.13
2018-12-13T20:19:48.346Z,4.67
2018-12-13T20:22:19.164Z,5.10
2018-12-13T20:24:48.516Z,5.00
2018-12-13T20:27:20.886Z,4.57
2018-12-13T20:29:50.750Z,4.50
2018-12-13T20:32:22.753Z,5.23
2018-12-13T20:34:52.839Z,4.33
2018-12-13T20:37:27.993Z,4.00
2018-12-13T20:39:57.268Z,3.83
2018-12-13T20:45:07.844Z,4.90
2018-12-13T20:47:37.178Z,4.80
2018-12-13T20:50:08.295Z,5.23
2018-12-13T20:52:37.795Z,4.73
2018-12-13T20:55:07.682Z,4.43
2018-12-13T20:57:38.586Z,5.17
2018-12-13T21:00:11.013Z,4.50
2018-12-13T21:03:23.367Z,4.73
2018-12-13T21:06:00.205Z,4.50
2018-12-13T21:08:49.407Z,4.30
2018-12-13T21:11:31.252Z,5.00
2018-12-13T21:14:04.274Z,5.73
2018-12-13T21:16:34.732Z,5.23
2018-12-13T21:19:04.704Z,6.03
2018-12-13T21:21:34.558Z,4.70
2018-12-13T21:24:04.209Z,5.70
2018-12-13T21:26:33.695Z,5.00
2018-12-13T21:29:03.155Z,5.30
2018-12-13T21:31:32.502Z,5.57
2018-12-13T21:34:03.090Z,4.90
2018-12-13T21:36:32.358Z,4.50
2018-12-13T21:39:01.836Z,4.47
2018-12-13T21:41:31.568Z,5.03
2018-12-13T21:44:02.846Z,4.47
2018-12-13T21:46:32.203Z,4.23
2018-12-13T21:49:04.404Z,4.37
2018-12-13T21:51:34.204Z,4.53
2018-12-13T21:54:07.488Z,4.73
2018-12-13T21:56:39.179Z,4.53
2018-12-13T21:59:16.395Z,4.07
2018-12-13T22:01:46.062Z,4.57
2018-12-13T22:04:15.656Z,4.27
2018-12-13T22:06:44.929Z,4.13
2018-12-13T22:09:18.199Z,4.40
2018-12-13T22:11:47.423Z,3.50
2018-12-13T22:14:20.276Z,4.67
2018-12-13T22:16:49.712Z,4.33
2018-12-13T22:19:22.736Z,4.47
2018-12-13T22:21:51.984Z,3.77
2018-12-13T22:24:23.842Z,4.10
2018-12-13T22:26:53.024Z,4.10
2018-12-13T22:29:30.063Z,3.77
2018-12-13T22:31:59.740Z,4.10
2018-12-13T22:34:30.065Z,4.07
2018-12-13T22:36:59.566Z,4.10
2018-12-13T22:39:33.551Z,4.07
2018-12-13T22:42:03.296Z,4.13
2018-12-13T22:44:34.258Z,4.13
2018-12-13T22:47:03.835Z,4.00
2018-12-13T22:49:40.447Z,4.20
2018-12-13T22:52:09.795Z,4.10
2018-12-13T22:54:45.574Z,3.20
2018-12-13T22:57:19.057Z,3.57
2018-12-13T22:59:51.831Z,4.13
2018-12-13T23:02:21.267Z,3.97
2018-12-13T23:04:50.847Z,4.40
2018-12-13T23:07:21.648Z,5.00
2018-12-13T23:09:50.932Z,4.27
2018-12-13T23:12:20.261Z,4.97
2018-12-13T23:15:04.625Z,4.23
2018-12-13T23:17:44.186Z,4.63
2018-12-13T23:20:18.208Z,4.83
2018-12-13T23:22:52.125Z,4.17
2018-12-13T23:25:21.302Z,3.77
2018-12-13T23:27:58.475Z,4.10
2018-12-13T23:30:27.889Z,5.10
2018-12-13T23:33:04.609Z,4.63
2018-12-13T23:35:33.828Z,4.20
2018-12-13T23:38:06.290Z,3.93
2018-12-13T23:40:36.996Z,4.00
2018-12-13T23:43:07.727Z,4.70
2018-12-13T23:46:08.884Z,4.57
2018-12-13T23:48:38.692Z,4.27
2018-12-13T23:51:12.844Z,4.07
2018-12-13T23:53:41.901Z,4.67
2018-12-13T23:56:16.245Z,4.67
2018-12-13T23:58:45.649Z,5.17
